createdAt,value
2022-09-26T00:01:38.184Z,8.40
2022-09-26T00:04:16.725Z,8.50
2022-09-26T00:06:44.590Z,8.50
2022-09-26T00:09:13.379Z,8.50
2022-09-26T00:11:41.337Z,8.50
2022-09-26T00:14:29.627Z,8.50
2022-09-26T00:16:57.717Z,8.40
2022-09-26T00:19:26.009Z,8.40
2022-09-26T00:21:53.809Z,8.30
2022-09-26T00:24:21.670Z,8.30
2022-09-26T00:26:49.410Z,8.20
2022-09-26T00:29:17.070Z,8.20
2022-09-26T00:31:47.871Z,8.30
2022-09-26T00:34:18.524Z,8.20
2022-09-26T00:36:46.230Z,8.20
2022-09-26T00:39:16.400Z,8.10
2022-09-26T00:41:45.297Z,8.10
2022-09-26T00:44:48.994Z,8.00
2022-09-26T00:47:37.258Z,8.00
2022-09-26T00:50:26.872Z,8.00
2022-09-26T00:53:04.533Z,7.80
2022-09-26T00:55:36.672Z,7.80
2022-09-26T00:58:13.401Z,7.90
2022-09-26T01:00:43.960Z,7.90
2022-09-26T01:03:12.019Z,7.80
2022-09-26T01:05:40.037Z,7.90
2022-09-26T01:08:09.691Z,7.90
2022-09-26T01:10:38.403Z,7.90
2022-09-26T01:13:09.075Z,7.90
2022-09-26T01:15:36.968Z,7.90
2022-09-26T01:18:07.766Z,7.80
2022-09-26T01:20:56.576Z,7.80
2022-09-26T01:24:00.097Z,7.70
2022-09-26T01:26:57.715Z,7.70
2022-09-26T01:29:39.268Z,7.60
2022-09-26T01:32:43.674Z,7.60
2022-09-26T01:35:21.465Z,7.60
2022-09-26T01:38:21.295Z,7.50
2022-09-26T01:40:59.389Z,7.40
2022-09-26T01:43:55.366Z,7.30
2022-09-26T01:46:41.366Z,7.40
2022-09-26T01:49:25.163Z,7.50
2022-09-26T01:52:06.199Z,7.60
2022-09-26T01:54:54.848Z,7.50
2022-09-26T01:57:30.072Z,7.50
2022-09-26T02:00:02.571Z,7.50
2022-09-26T02:02:35.862Z,7.40
2022-09-26T02:05:18.988Z,7.40
2022-09-26T02:08:00.372Z,7.40
2022-09-26T02:10:36.912Z,7.40
2022-09-26T02:13:16.832Z,7.30
2022-09-26T02:15:48.943Z,7.30
2022-09-26T02:18:27.791Z,7.30
2022-09-26T02:21:06.321Z,7.30
2022-09-26T02:23:33.982Z,7.20
2022-09-26T02:26:01.683Z,7.30
2022-09-26T02:28:29.467Z,7.20
2022-09-26T02:30:59.682Z,7.10
2022-09-26T02:33:29.125Z,7.10
2022-09-26T02:35:57.760Z,7.20
2022-09-26T02:38:31.543Z,7.20
2022-09-26T02:41:56.225Z,7.20
2022-09-26T02:44:49.836Z,7.20
2022-09-26T02:47:35.957Z,7.20
2022-09-26T02:50:33.718Z,7.20
2022-09-26T02:53:22.095Z,7.20
2022-09-26T02:56:03.991Z,7.20
2022-09-26T02:58:36.512Z,7.20
2022-09-26T03:01:08.604Z,7.20
2022-09-26T03:03:58.392Z,7.20
2022-09-26T03:06:31.541Z,7.20
2022-09-26T03:09:01.872Z,7.20
2022-09-26T03:11:30.818Z,7.20
2022-09-26T03:13:59.812Z,7.20
2022-09-26T03:16:33.504Z,7.10
2022-09-26T03:19:39.572Z,7.20
2022-09-26T03:22:07.697Z,7.10
2022-09-26T03:24:37.518Z,7.10
2022-09-26T03:27:06.371Z,7.10
2022-09-26T03:29:36.330Z,7.10
2022-09-26T03:32:06.447Z,7.10
2022-09-26T03:34:34.966Z,7.10
2022-09-26T03:37:02.555Z,7.00
2022-09-26T03:39:30.492Z,7.10
2022-09-26T03:42:05.341Z,7.00
2022-09-26T03:44:33.027Z,7.00
2022-09-26T03:47:13.864Z,7.10
2022-09-26T03:49:44.022Z,7.00
2022-09-26T03:52:13.601Z,7.00
2022-09-26T03:54:42.971Z,7.00
2022-09-26T03:57:13.284Z,7.00
2022-09-26T03:59:47.996Z,7.00
2022-09-26T04:02:17.465Z,7.00
2022-09-26T04:04:49.149Z,7.00
2022-09-26T04:07:17.102Z,6.90
2022-09-26T04:09:44.671Z,7.00
2022-09-26T04:12:12.628Z,7.00
2022-09-26T04:14:44.058Z,6.90
2022-09-26T04:17:12.279Z,6.90
2022-09-26T04:19:43.763Z,6.80
2022-09-26T04:22:12.374Z,6.80
2022-09-26T04:24:40.332Z,6.80
2022-09-26T04:27:08.852Z,6.90
2022-09-26T04:29:37.463Z,6.90
2022-09-26T04:32:28.844Z,6.90
2022-09-26T04:35:28.959Z,6.80
2022-09-26T04:37:56.630Z,6.80
2022-09-26T04:40:24.619Z,6.90
2022-09-26T04:43:02.689Z,6.80
2022-09-26T04:45:30.375Z,6.80
2022-09-26T04:47:58.073Z,6.90
2022-09-26T04:50:26.527Z,6.90
2022-09-26T04:53:08.138Z,6.90
2022-09-26T04:55:45.518Z,6.90
2022-09-26T04:58:14.856Z,6.90
2022-09-26T05:00:48.172Z,6.90
2022-09-26T05:03:21.834Z,7.00
2022-09-26T05:05:50.373Z,7.00
2022-09-26T05:08:18.161Z,7.00
2022-09-26T05:10:56.802Z,7.00
2022-09-26T05:13:26.714Z,7.00
2022-09-26T05:15:55.660Z,7.00
2022-09-26T05:18:24.211Z,7.10
2022-09-26T05:20:52.768Z,7.20
2022-09-26T05:23:44.757Z,7.20
2022-09-26T05:26:29.224Z,7.10
2022-09-26T05:29:07.683Z,7.20
2022-09-26T05:32:01.955Z,7.20
2022-09-26T05:34:33.982Z,7.20
2022-09-26T05:37:02.254Z,7.20
2022-09-26T05:39:48.085Z,7.30
2022-09-26T05:42:16.545Z,7.30
2022-09-26T05:44:44.099Z,7.40
2022-09-26T05:47:12.009Z,7.40
2022-09-26T05:49:39.785Z,7.50
2022-09-26T05:52:09.808Z,7.50
2022-09-26T05:54:37.499Z,7.50
2022-09-26T05:57:22.199Z,7.50
2022-09-26T05:59:54.487Z,7.50
2022-09-26T06:02:25.048Z,7.60
2022-09-26T06:05:16.169Z,7.60
2022-09-26T06:08:13.446Z,7.60
2022-09-26T06:11:05.802Z,7.60
2022-09-26T06:13:35.064Z,7.60
2022-09-26T06:16:06.986Z,7.60
2022-09-26T06:18:39.263Z,7.60
2022-09-26T06:21:09.810Z,7.60
2022-09-26T06:23:38.707Z,7.60
2022-09-26T06:26:12.575Z,7.60
2022-09-26T06:28:40.419Z,7.60
2022-09-26T06:31:17.350Z,7.70
2022-09-26T06:34:08.495Z,7.60
2022-09-26T06:36:48.591Z,7.60
2022-09-26T06:39:16.510Z,7.70
2022-09-26T06:41:46.169Z,7.70
2022-09-26T06:44:36.927Z,7.70
2022-09-26T06:47:30.220Z,7.80
2022-09-26T06:50:18.247Z,7.80
2022-09-26T06:52:52.318Z,7.70
2022-09-26T06:55:20.248Z,7.80
2022-09-26T06:57:47.783Z,7.80
2022-09-26T07:00:19.012Z,7.80
2022-09-26T07:03:10.400Z,7.90
2022-09-26T07:05:47.033Z,7.90
2022-09-26T07:08:15.489Z,7.90
2022-09-26T07:10:43.075Z,8.00
2022-09-26T07:13:20.138Z,8.00
2022-09-26T07:15:48.879Z,8.00
2022-09-26T07:18:48.168Z,8.10
2022-09-26T07:21:20.538Z,8.10
2022-09-26T07:23:50.933Z,8.20
2022-09-26T07:26:21.037Z,8.30
2022-09-26T07:28:53.653Z,8.40
2022-09-26T07:31:26.573Z,8.40
2022-09-26T07:34:07.603Z,8.50
2022-09-26T07:36:36.954Z,8.50
2022-09-26T07:39:04.747Z,8.50
2022-09-26T07:41:32.452Z,8.50
2022-09-26T07:47:07.169Z,8.60
2022-09-26T07:49:54.200Z,8.70
2022-09-26T07:52:48.444Z,8.70
2022-09-26T07:55:28.812Z,8.70
2022-09-26T07:58:36.465Z,8.70
2022-09-26T08:01:23.581Z,8.70
2022-09-26T08:04:15.411Z,8.80
2022-09-26T08:06:43.513Z,8.70
2022-09-26T08:09:11.078Z,8.80
2022-09-26T08:12:08.029Z,8.80
2022-09-26T08:14:51.565Z,8.90
2022-09-26T08:17:23.635Z,9.00
2022-09-26T08:19:51.335Z,9.00
2022-09-26T08:22:19.434Z,9.00
2022-09-26T08:24:51.350Z,9.10
2022-09-26T08:27:39.162Z,9.20
2022-09-26T08:30:08.096Z,9.20
2022-09-26T08:32:35.663Z,9.30
2022-09-26T08:35:03.805Z,9.30
2022-09-26T08:37:34.400Z,9.40
2022-09-26T08:40:34.010Z,9.40
2022-09-26T08:43:30.360Z,9.50
2022-09-26T08:46:42.914Z,9.50
2022-09-26T08:49:42.703Z,9.50
2022-09-26T08:52:25.973Z,9.60
2022-09-26T08:54:59.967Z,9.60
2022-09-26T08:57:38.175Z,9.70
2022-09-26T09:00:26.769Z,9.80
2022-09-26T09:03:11.812Z,9.80
2022-09-26T09:06:00.346Z,9.80
2022-09-26T09:08:52.159Z,9.90
2022-09-26T09:11:57.226Z,10.00
2022-09-26T09:15:24.099Z,10.10
2022-09-26T09:18:33.706Z,10.30
2022-09-26T09:21:59.721Z,10.40
2022-09-26T09:25:05.223Z,10.50
2022-09-26T09:28:04.058Z,10.50
2022-09-26T09:30:52.295Z,10.70
2022-09-26T09:33:44.809Z,10.80
2022-09-26T09:36:46.125Z,10.90
2022-09-26T09:39:34.982Z,10.90
2022-09-26T09:42:41.153Z,10.90
2022-09-26T09:45:31.203Z,11.10
2022-09-26T09:47:59.166Z,11.10
2022-09-26T09:50:42.024Z,11.00
2022-09-26T09:53:27.892Z,11.30
2022-09-26T09:56:16.555Z,11.50
2022-09-26T09:58:50.087Z,11.40
2022-09-26T10:01:28.872Z,11.40
2022-09-26T10:04:23.440Z,11.60
2022-09-26T10:06:51.858Z,11.70
2022-09-26T10:09:38.490Z,11.50
2022-09-26T10:12:33.316Z,11.40
2022-09-26T10:15:19.933Z,11.20
2022-09-26T10:18:23.999Z,11.40
2022-09-26T10:21:09.619Z,11.50
2022-09-26T10:23:47.039Z,11.70
2022-09-26T10:26:50.544Z,12.00
2022-09-26T10:29:37.103Z,12.00
2022-09-26T10:32:06.554Z,12.10
2022-09-26T10:34:36.018Z,12.10
2022-09-26T10:37:25.816Z,12.00
2022-09-26T10:40:48.133Z,11.80
2022-09-26T10:43:35.311Z,11.90
2022-09-26T10:46:21.785Z,11.80
2022-09-26T10:49:17.933Z,11.90
2022-09-26T10:52:37.737Z,12.20
2022-09-26T10:55:26.596Z,12.30
2022-09-26T10:57:57.700Z,12.30
2022-09-26T11:00:40.591Z,12.50
2022-09-26T11:03:24.757Z,12.50
2022-09-26T11:06:45.637Z,12.70
2022-09-26T11:09:32.524Z,12.40
2022-09-26T11:12:31.934Z,12.30
2022-09-26T11:15:10.534Z,12.20
2022-09-26T11:17:52.169Z,12.10
2022-09-26T11:20:32.923Z,12.10
2022-09-26T11:23:24.575Z,12.50
2022-09-26T11:26:35.262Z,12.60
2022-09-26T11:29:47.464Z,12.50
2022-09-26T11:32:26.054Z,12.60
2022-09-26T11:34:54.589Z,12.50
2022-09-26T11:37:45.907Z,12.50
2022-09-26T11:40:43.419Z,12.40
2022-09-26T11:43:39.888Z,12.50
2022-09-26T11:46:35.657Z,12.90
2022-09-26T11:49:27.980Z,12.70
2022-09-26T11:52:46.742Z,12.60
2022-09-26T11:55:31.434Z,12.90
2022-09-26T11:58:40.314Z,13.10
2022-09-26T12:01:31.737Z,13.40
2022-09-26T12:04:12.258Z,13.80
2022-09-26T12:06:50.033Z,13.70
2022-09-26T12:10:00.429Z,13.50
2022-09-26T12:12:41.802Z,13.20
2022-09-26T12:15:23.937Z,13.10
2022-09-26T12:17:57.087Z,13.10
2022-09-26T12:20:39.629Z,13.40
2022-09-26T12:23:29.959Z,13.80
2022-09-26T12:26:15.398Z,14.00
2022-09-26T12:28:49.268Z,14.20
2022-09-26T12:31:35.491Z,14.10
2022-09-26T12:34:21.830Z,14.30
2022-09-26T12:37:15.206Z,14.20
2022-09-26T12:40:01.896Z,14.20
2022-09-26T12:43:07.060Z,14.00
2022-09-26T12:46:12.744Z,14.20
2022-09-26T12:49:10.277Z,14.30
2022-09-26T12:51:47.580Z,14.50
2022-09-26T12:54:28.840Z,14.80
2022-09-26T12:57:13.989Z,14.90
2022-09-26T13:00:18.803Z,14.60
2022-09-26T13:03:17.318Z,14.30
2022-09-26T13:06:13.598Z,14.30
2022-09-26T13:09:01.184Z,14.30
2022-09-26T13:11:59.558Z,14.10
2022-09-26T13:14:50.968Z,14.00
2022-09-26T13:17:23.539Z,13.80
2022-09-26T13:20:03.696Z,14.00
2022-09-26T13:22:35.289Z,14.40
2022-09-26T13:25:11.857Z,14.50
2022-09-26T13:27:52.733Z,14.60
2022-09-26T13:30:24.679Z,14.70
2022-09-26T13:33:14.840Z,14.60
2022-09-26T13:35:47.586Z,14.60
2022-09-26T13:38:54.203Z,14.60
2022-09-26T13:41:40.930Z,14.50
2022-09-26T13:44:30.446Z,14.60
2022-09-26T13:47:00.427Z,14.40
2022-09-26T13:49:34.233Z,14.20
2022-09-26T13:52:26.887Z,14.00
2022-09-26T13:55:19.551Z,13.90
2022-09-26T13:58:04.268Z,13.90
2022-09-26T14:00:31.892Z,14.30
2022-09-26T14:03:23.639Z,14.50
2022-09-26T14:05:53.338Z,14.70
2022-09-26T14:08:48.466Z,14.80
2022-09-26T14:11:35.558Z,14.90
2022-09-26T14:14:18.602Z,15.00
2022-09-26T14:16:50.239Z,15.10
2022-09-26T14:19:45.215Z,15.10
2022-09-26T14:22:19.280Z,14.90
2022-09-26T14:24:54.488Z,14.90
2022-09-26T14:27:27.078Z,14.80
2022-09-26T14:30:13.313Z,14.70
2022-09-26T14:32:45.716Z,14.50
2022-09-26T14:35:19.878Z,14.40
2022-09-26T14:37:51.177Z,14.20
2022-09-26T14:40:37.029Z,14.10
2022-09-26T14:43:15.303Z,14.00
2022-09-26T14:45:42.838Z,13.90
2022-09-26T14:48:36.401Z,13.80
2022-09-26T14:51:27.581Z,13.80
2022-09-26T14:53:58.933Z,13.80
2022-09-26T14:56:27.474Z,13.70
2022-09-26T14:59:15.950Z,13.60
2022-09-26T15:01:47.154Z,13.60
2022-09-26T15:04:31.380Z,13.50
2022-09-26T15:07:04.717Z,13.50
2022-09-26T15:10:04.684Z,13.50
2022-09-26T15:12:42.254Z,13.50
2022-09-26T15:15:31.176Z,13.40
2022-09-26T15:18:28.145Z,13.30
2022-09-26T15:21:10.313Z,13.30
2022-09-26T15:23:47.368Z,13.20
2022-09-26T15:26:18.269Z,13.20
2022-09-26T15:28:51.071Z,13.20
2022-09-26T15:31:20.629Z,13.10
2022-09-26T15:34:16.631Z,13.10
2022-09-26T15:36:56.767Z,13.10
2022-09-26T15:39:33.282Z,13.10
2022-09-26T15:42:45.843Z,13.10
2022-09-26T15:45:33.794Z,13.10
2022-09-26T15:48:04.149Z,13.10
2022-09-26T15:50:40.732Z,13.00
2022-09-26T15:53:45.329Z,12.90
2022-09-26T15:56:25.492Z,12.90
2022-09-26T15:58:58.305Z,12.90
2022-09-26T16:01:29.569Z,12.80
2022-09-26T16:04:01.756Z,12.80
2022-09-26T16:06:38.324Z,12.80
2022-09-26T16:09:11.593Z,12.70
2022-09-26T16:11:57.206Z,12.70
2022-09-26T16:14:30.409Z,12.60
2022-09-26T16:17:21.810Z,12.60
2022-09-26T16:19:58.269Z,12.60
2022-09-26T16:22:37.702Z,12.50
2022-09-26T16:25:34.678Z,12.50
2022-09-26T16:28:11.288Z,12.50
2022-09-26T16:31:07.860Z,12.40
2022-09-26T16:33:39.176Z,12.40
2022-09-26T16:36:24.542Z,12.30
2022-09-26T16:39:19.599Z,12.30
2022-09-26T16:42:06.227Z,12.30
2022-09-26T16:44:41.796Z,12.30
2022-09-26T16:47:40.334Z,12.20
2022-09-26T16:50:28.561Z,12.20
2022-09-26T16:52:56.972Z,12.20
2022-09-26T16:55:25.923Z,12.20
2022-09-26T16:58:02.075Z,12.10
2022-09-26T17:00:52.621Z,12.10
2022-09-26T17:03:25.163Z,12.10
2022-09-26T17:05:56.008Z,12.10
2022-09-26T17:08:25.611Z,12.00
2022-09-26T17:11:00.570Z,12.00
2022-09-26T17:13:31.308Z,11.90
2022-09-26T17:16:03.758Z,11.80
2022-09-26T17:18:33.501Z,11.80
2022-09-26T17:21:03.210Z,11.90
2022-09-26T17:23:40.933Z,11.80
2022-09-26T17:26:24.209Z,11.80
2022-09-26T17:28:53.679Z,11.80
2022-09-26T17:31:21.550Z,11.80
2022-09-26T17:33:52.828Z,11.70
2022-09-26T17:36:26.704Z,11.70
2022-09-26T17:38:55.079Z,11.70
2022-09-26T17:41:23.300Z,11.70
2022-09-26T17:43:58.853Z,11.60
2022-09-26T17:46:26.751Z,11.60
2022-09-26T17:48:55.001Z,11.50
2022-09-26T17:51:24.294Z,11.50
2022-09-26T17:53:52.898Z,11.50
2022-09-26T17:56:21.102Z,11.50
2022-09-26T17:58:49.897Z,11.40
2022-09-26T18:01:34.699Z,11.40
2022-09-26T18:04:07.490Z,11.40
2022-09-26T18:06:37.180Z,11.40
2022-09-26T18:09:07.713Z,11.40
2022-09-26T18:11:36.619Z,11.40
2022-09-26T18:14:06.392Z,11.30
2022-09-26T18:16:34.037Z,11.30
2022-09-26T18:19:06.879Z,11.30
2022-09-26T18:21:35.759Z,11.30
2022-09-26T18:24:08.564Z,11.20
2022-09-26T18:26:42.365Z,11.20
2022-09-26T18:29:13.846Z,11.20
2022-09-26T18:31:44.677Z,11.20
2022-09-26T18:34:20.219Z,11.10
2022-09-26T18:36:52.203Z,11.20
2022-09-26T18:39:19.929Z,11.10
2022-09-26T18:41:51.280Z,11.00
2022-09-26T18:44:19.131Z,11.00
2022-09-26T18:46:49.067Z,11.00
2022-09-26T18:49:18.030Z,11.00
2022-09-26T18:51:46.220Z,11.00
2022-09-26T18:54:16.436Z,11.00
2022-09-26T18:57:03.126Z,10.90
2022-09-26T18:59:33.746Z,10.90
2022-09-26T19:02:02.956Z,10.90
2022-09-26T19:04:31.118Z,10.90
2022-09-26T19:07:01.514Z,10.80
2022-09-26T19:09:33.553Z,10.80
2022-09-26T19:12:02.501Z,10.70
2022-09-26T19:14:31.453Z,10.80
2022-09-26T19:16:59.492Z,10.80
2022-09-26T19:19:33.118Z,10.80
2022-09-26T19:22:10.513Z,10.30
2022-09-26T19:24:51.211Z,10.40
2022-09-26T19:27:32.430Z,10.50
2022-09-26T19:30:07.343Z,10.60
2022-09-26T19:32:39.723Z,10.50
2022-09-26T19:35:32.489Z,10.50
2022-09-26T19:38:01.293Z,10.50
2022-09-26T19:40:29.282Z,10.60
2022-09-26T19:42:57.525Z,10.60
2022-09-26T19:45:26.566Z,10.60
2022-09-26T19:47:56.234Z,10.50
2022-09-26T19:50:28.709Z,10.50
2022-09-26T19:52:58.744Z,10.50
2022-09-26T19:55:31.653Z,10.50
2022-09-26T19:58:11.255Z,10.50
2022-09-26T20:00:42.853Z,10.40
2022-09-26T20:03:41.993Z,10.50
2022-09-26T20:06:19.924Z,10.50
2022-09-26T20:08:48.879Z,10.50
2022-09-26T20:11:17.692Z,10.50
2022-09-26T20:14:04.677Z,10.50
2022-09-26T20:16:34.702Z,10.50
2022-09-26T20:19:07.287Z,10.40
2022-09-26T20:21:35.000Z,10.40
2022-09-26T20:24:02.940Z,10.30
2022-09-26T20:26:33.021Z,10.40
2022-09-26T20:29:00.675Z,10.40
2022-09-26T20:31:29.459Z,10.30
2022-09-26T20:34:00.289Z,10.30
2022-09-26T20:36:33.181Z,10.40
2022-09-26T20:39:04.323Z,10.30
2022-09-26T20:41:38.995Z,10.30
2022-09-26T20:44:11.956Z,10.20
2022-09-26T20:46:43.715Z,10.20
2022-09-26T20:49:17.925Z,10.10
2022-09-26T20:51:46.332Z,10.00
2022-09-26T20:54:33.295Z,10.10
2022-09-26T20:57:03.984Z,10.10
2022-09-26T20:59:35.194Z,10.10
2022-09-26T21:02:21.315Z,10.10
2022-09-26T21:04:49.256Z,10.10
2022-09-26T21:07:17.452Z,10.00
2022-09-26T21:09:45.512Z,10.00
2022-09-26T21:12:17.984Z,10.00
2022-09-26T21:14:45.981Z,10.10
2022-09-26T21:17:27.451Z,10.00
2022-09-26T21:19:55.984Z,10.00
2022-09-26T21:22:46.695Z,10.00
2022-09-26T21:25:23.216Z,9.90
2022-09-26T21:28:01.854Z,9.90
2022-09-26T21:30:30.507Z,9.80
2022-09-26T21:32:59.788Z,9.70
2022-09-26T21:35:32.544Z,9.70
2022-09-26T21:38:01.574Z,9.70
2022-09-26T21:40:32.661Z,9.60
2022-09-26T21:43:07.318Z,9.60
2022-09-26T21:45:34.946Z,9.60
2022-09-26T21:48:02.812Z,9.60
2022-09-26T21:50:30.669Z,9.60
2022-09-26T21:53:08.372Z,9.60
2022-09-26T21:55:39.053Z,9.50
2022-09-26T21:58:13.270Z,9.50
2022-09-26T22:00:44.076Z,9.40
2022-09-26T22:03:11.727Z,9.40
2022-09-26T22:05:39.955Z,9.40
2022-09-26T22:08:07.546Z,9.40
2022-09-26T22:10:36.192Z,9.40
2022-09-26T22:13:04.929Z,9.40
2022-09-26T22:15:32.546Z,9.30
2022-09-26T22:18:00.249Z,9.30
2022-09-26T22:20:27.855Z,9.30
2022-09-26T22:22:55.858Z,9.30
2022-09-26T22:25:23.520Z,9.20
2022-09-26T22:27:51.407Z,9.20
2022-09-26T22:30:19.126Z,9.20
2022-09-26T22:32:46.768Z,9.30
2022-09-26T22:35:14.608Z,9.30
2022-09-26T22:37:42.247Z,9.30
2022-09-26T22:40:09.970Z,9.30
2022-09-26T22:42:38.201Z,9.20
2022-09-26T22:45:06.055Z,9.20
2022-09-26T22:47:33.986Z,9.20
2022-09-26T22:50:01.742Z,9.20
2022-09-26T22:52:29.471Z,9.20
2022-09-26T22:54:57.108Z,9.10
2022-09-26T22:57:24.914Z,9.10
2022-09-26T22:59:52.551Z,9.10
2022-09-26T23:02:20.228Z,9.10
2022-09-26T23:04:47.774Z,9.10
2022-09-26T23:07:18.030Z,9.00
2022-09-26T23:09:46.538Z,9.00
2022-09-26T23:12:14.470Z,9.00
2022-09-26T23:14:42.075Z,9.00
2022-09-26T23:17:09.845Z,9.00
2022-09-26T23:19:38.413Z,9.00
2022-09-26T23:22:06.402Z,8.90
2022-09-26T23:24:33.944Z,8.90
2022-09-26T23:27:01.742Z,8.90
2022-09-26T23:29:29.467Z,8.80
2022-09-26T23:31:58.100Z,8.70
2022-09-26T23:34:25.565Z,8.70
2022-09-26T23:36:53.334Z,8.70
2022-09-26T23:39:20.969Z,8.60
2022-09-26T23:41:48.584Z,8.70
2022-09-26T23:44:16.192Z,8.70
2022-09-26T23:46:43.851Z,8.70
2022-09-26T23:49:11.447Z,8.70
2022-09-26T23:51:39.106Z,8.70
2022-09-26T23:54:07.048Z,8.70
2022-09-26T23:56:34.707Z,8.60
2022-09-26T23:59:02.396Z,8.70
